Terminal Aerodrome Forecast
Issued by NWS

Home | Current Version | Previous Version | Text Only | Print | Product List | Glossary On
Versions: 1 2 3 4 5 6 7 8 9 10 11 12 13 14 15 16 17 18 19 20 21 22 23 24 25 26 27 28 29 30 31 32 33 34 35
000
FTUS45 KLKN 211832 AAA
TAFEKO
TAF AMD
KEKO 211832Z 2119/2218 04005KT 6SM -RASN OVC010
     FM212000 02005KT P6SM -RA FEW010 OVC030
     FM212200 32009KT P6SM -RA SCT020 BKN030 OVC050
     FM220600 24006KT P6SM VCSH BKN040 BKN080=

USA.gov is the U.S. government's official web portal to all federal, state and local government web resources and services.